sensor_id;sensor_type;location;lat;lon;timestamp;temperature;humidity
53264;DHT22;39153;52.680;6.172;2023-07-30T00:01:55;16.80;99.90
53264;DHT22;39153;52.680;6.172;2023-07-30T00:04:21;16.70;99.90
53264;DHT22;39153;52.680;6.172;2023-07-30T00:06:47;16.70;99.90
53264;DHT22;39153;52.680;6.172;2023-07-30T00:09:12;16.60;99.90
53264;DHT22;39153;52.680;6.172;2023-07-30T00:11:38;16.60;99.90
53264;DHT22;39153;52.680;6.172;2023-07-30T00:14:04;16.60;99.90
53264;DHT22;39153;52.680;6.172;2023-07-30T00:16:30;16.50;99.90
53264;DHT22;39153;52.680;6.172;2023-07-30T00:18:56;16.50;99.90
53264;DHT22;39153;52.680;6.172;2023-07-30T00:21:22;16.50;99.90
53264;DHT22;39153;52.680;6.172;2023-07-30T00:23:48;16.50;99.90
53264;DHT22;39153;52.680;6.172;2023-07-30T00:26:14;16.50;99.90
53264;DHT22;39153;52.680;6.172;2023-07-30T00:28:40;16.50;99.90
53264;DHT22;39153;52.680;6.172;2023-07-30T00:31:06;16.40;99.90
53264;DHT22;39153;52.680;6.172;2023-07-30T00:33:31;16.40;99.90
53264;DHT22;39153;52.680;6.172;2023-07-30T00:35:57;16.30;99.90
53264;DHT22;39153;52.680;6.172;2023-07-30T00:38:23;16.30;99.90
53264;DHT22;39153;52.680;6.172;2023-07-30T00:40:49;16.30;99.90
53264;DHT22;39153;52.680;6.172;2023-07-30T00:43:14;16.20;99.90
53264;DHT22;39153;52.680;6.172;2023-07-30T00:45:43;16.20;99.90
53264;DHT22;39153;52.680;6.172;2023-07-30T00:48:13;16.20;99.90
53264;DHT22;39153;52.680;6.172;2023-07-30T00:50:40;16.10;99.90
53264;DHT22;39153;52.680;6.172;2023-07-30T00:53:07;16.10;99.90
53264;DHT22;39153;52.680;6.172;2023-07-30T00:55:34;16.10;99.90
53264;DHT22;39153;52.680;6.172;2023-07-30T00:58:01;16.00;99.90
53264;DHT22;39153;52.680;6.172;2023-07-30T01:00:27;16.00;99.90
53264;DHT22;39153;52.680;6.172;2023-07-30T01:02:55;16.00;99.90
53264;DHT22;39153;52.680;6.172;2023-07-30T01:05:21;16.00;99.90
53264;DHT22;39153;52.680;6.172;2023-07-30T01:07:47;15.90;99.90
53264;DHT22;39153;52.680;6.172;2023-07-30T01:10:13;16.00;99.90
53264;DHT22;39153;52.680;6.172;2023-07-30T01:12:39;15.90;99.90
53264;DHT22;39153;52.680;6.172;2023-07-30T01:15:06;15.90;99.90
53264;DHT22;39153;52.680;6.172;2023-07-30T01:17:33;15.90;99.90
53264;DHT22;39153;52.680;6.172;2023-07-30T01:19:59;15.80;99.90
53264;DHT22;39153;52.680;6.172;2023-07-30T01:22:25;15.80;99.90
53264;DHT22;39153;52.680;6.172;2023-07-30T01:24:51;15.80;99.90
53264;DHT22;39153;52.680;6.172;2023-07-30T01:27:28;15.80;99.90
53264;DHT22;39153;52.680;6.172;2023-07-30T01:30:08;15.80;99.90
53264;DHT22;39153;52.680;6.172;2023-07-30T01:32:36;15.80;99.90
53264;DHT22;39153;52.680;6.172;2023-07-30T01:35:03;15.70;99.90
53264;DHT22;39153;52.680;6.172;2023-07-30T01:37:30;15.70;99.90
53264;DHT22;39153;52.680;6.172;2023-07-30T01:39:56;15.70;99.90
53264;DHT22;39153;52.680;6.172;2023-07-30T01:42:28;15.70;99.90
53264;DHT22;39153;52.680;6.172;2023-07-30T01:44:54;15.70;99.90
53264;DHT22;39153;52.680;6.172;2023-07-30T01:47:20;15.70;99.90
53264;DHT22;39153;52.680;6.172;2023-07-30T01:49:45;15.70;99.90
53264;DHT22;39153;52.680;6.172;2023-07-30T01:52:11;15.70;99.90
53264;DHT22;39153;52.680;6.172;2023-07-30T01:54:37;15.80;99.90
53264;DHT22;39153;52.680;6.172;2023-07-30T01:57:02;15.60;99.90
53264;DHT22;39153;52.680;6.172;2023-07-30T01:59:28;15.60;99.90
53264;DHT22;39153;52.680;6.172;2023-07-30T02:01:54;15.60;99.90
53264;DHT22;39153;52.680;6.172;2023-07-30T02:04:20;15.60;99.90
53264;DHT22;39153;52.680;6.172;2023-07-30T02:06:45;15.50;99.90
53264;DHT22;39153;52.680;6.172;2023-07-30T02:09:11;15.60;99.90
53264;DHT22;39153;52.680;6.172;2023-07-30T02:11:37;15.60;99.90
53264;DHT22;39153;52.680;6.172;2023-07-30T02:14:02;15.60;99.90
53264;DHT22;39153;52.680;6.172;2023-07-30T02:16:28;15.60;99.90
53264;DHT22;39153;52.680;6.172;2023-07-30T02:18:54;15.60;99.90
53264;DHT22;39153;52.680;6.172;2023-07-30T02:21:19;15.60;99.90
53264;DHT22;39153;52.680;6.172;2023-07-30T02:23:45;15.60;99.90
53264;DHT22;39153;52.680;6.172;2023-07-30T02:26:11;15.60;99.90
53264;DHT22;39153;52.680;6.172;2023-07-30T02:28:36;15.60;99.90
53264;DHT22;39153;52.680;6.172;2023-07-30T02:31:02;15.60;99.90
53264;DHT22;39153;52.680;6.172;2023-07-30T02:33:28;15.60;99.90
53264;DHT22;39153;52.680;6.172;2023-07-30T02:35:53;15.60;99.90
53264;DHT22;39153;52.680;6.172;2023-07-30T02:38:19;15.60;99.90
53264;DHT22;39153;52.680;6.172;2023-07-30T02:40:45;15.60;99.90
53264;DHT22;39153;52.680;6.172;2023-07-30T02:43:10;15.60;99.90
53264;DHT22;39153;52.680;6.172;2023-07-30T02:45:37;15.60;99.90
53264;DHT22;39153;52.680;6.172;2023-07-30T02:48:02;15.60;99.90
53264;DHT22;39153;52.680;6.172;2023-07-30T02:50:28;15.60;99.90
53264;DHT22;39153;52.680;6.172;2023-07-30T02:52:54;15.60;99.90
53264;DHT22;39153;52.680;6.172;2023-07-30T02:55:20;15.60;99.90
53264;DHT22;39153;52.680;6.172;2023-07-30T02:57:45;15.60;99.90
53264;DHT22;39153;52.680;6.172;2023-07-30T03:00:11;15.60;99.90
53264;DHT22;39153;52.680;6.172;2023-07-30T03:02:37;15.70;99.90
53264;DHT22;39153;52.680;6.172;2023-07-30T03:05:03;15.60;99.90
53264;DHT22;39153;52.680;6.172;2023-07-30T03:07:29;15.60;99.90
53264;DHT22;39153;52.680;6.172;2023-07-30T03:09:55;15.60;99.90
53264;DHT22;39153;52.680;6.172;2023-07-30T03:12:20;15.60;99.90
53264;DHT22;39153;52.680;6.172;2023-07-30T03:14:46;15.60;99.90
53264;DHT22;39153;52.680;6.172;2023-07-30T03:17:12;15.60;99.90
53264;DHT22;39153;52.680;6.172;2023-07-30T03:19:37;15.60;99.90
53264;DHT22;39153;52.680;6.172;2023-07-30T03:22:03;15.50;99.90
53264;DHT22;39153;52.680;6.172;2023-07-30T03:24:29;15.60;99.90
53264;DHT22;39153;52.680;6.172;2023-07-30T03:26:55;15.50;99.90
53264;DHT22;39153;52.680;6.172;2023-07-30T03:29:20;15.50;99.90
53264;DHT22;39153;52.680;6.172;2023-07-30T03:31:46;15.50;99.90
53264;DHT22;39153;52.680;6.172;2023-07-30T03:34:12;15.50;99.90
53264;DHT22;39153;52.680;6.172;2023-07-30T03:36:37;15.50;99.90
53264;DHT22;39153;52.680;6.172;2023-07-30T03:39:03;15.40;99.90
53264;DHT22;39153;52.680;6.172;2023-07-30T03:41:29;15.40;99.90
53264;DHT22;39153;52.680;6.172;2023-07-30T03:43:55;15.40;99.90
53264;DHT22;39153;52.680;6.172;2023-07-30T03:46:20;15.30;99.90
53264;DHT22;39153;52.680;6.172;2023-07-30T03:48:46;15.30;99.90
53264;DHT22;39153;52.680;6.172;2023-07-30T03:51:12;15.30;99.90
53264;DHT22;39153;52.680;6.172;2023-07-30T03:53:38;15.30;99.90
53264;DHT22;39153;52.680;6.172;2023-07-30T03:56:03;15.30;99.90
53264;DHT22;39153;52.680;6.172;2023-07-30T03:58:29;15.30;99.90
53264;DHT22;39153;52.680;6.172;2023-07-30T04:00:56;15.30;99.90
53264;DHT22;39153;52.680;6.172;2023-07-30T04:03:22;15.20;99.90
53264;DHT22;39153;52.680;6.172;2023-07-30T04:05:47;15.30;99.90
53264;DHT22;39153;52.680;6.172;2023-07-30T04:08:13;15.30;99.90
53264;DHT22;39153;52.680;6.172;2023-07-30T04:10:39;15.20;99.90
53264;DHT22;39153;52.680;6.172;2023-07-30T04:13:05;15.20;99.90
53264;DHT22;39153;52.680;6.172;2023-07-30T04:15:30;15.20;99.90
53264;DHT22;39153;52.680;6.172;2023-07-30T04:17:56;15.20;99.90
53264;DHT22;39153;52.680;6.172;2023-07-30T04:20:22;15.20;99.90
53264;DHT22;39153;52.680;6.172;2023-07-30T04:22:47;15.20;99.90
53264;DHT22;39153;52.680;6.172;2023-07-30T04:25:13;15.20;99.90
53264;DHT22;39153;52.680;6.172;2023-07-30T04:27:39;15.20;99.90
53264;DHT22;39153;52.680;6.172;2023-07-30T04:30:05;15.20;99.90
53264;DHT22;39153;52.680;6.172;2023-07-30T04:32:31;15.30;99.90
53264;DHT22;39153;52.680;6.172;2023-07-30T04:34:57;15.30;99.90
53264;DHT22;39153;52.680;6.172;2023-07-30T04:37:23;15.30;99.90
53264;DHT22;39153;52.680;6.172;2023-07-30T04:39:49;15.30;99.90
53264;DHT22;39153;52.680;6.172;2023-07-30T04:42:15;15.40;99.90
53264;DHT22;39153;52.680;6.172;2023-07-30T04:44:41;15.40;99.90
53264;DHT22;39153;52.680;6.172;2023-07-30T04:47:07;15.40;99.90
53264;DHT22;39153;52.680;6.172;2023-07-30T04:49:33;15.50;99.90
53264;DHT22;39153;52.680;6.172;2023-07-30T04:51:58;15.50;99.90
53264;DHT22;39153;52.680;6.172;2023-07-30T04:54:24;15.50;99.90
53264;DHT22;39153;52.680;6.172;2023-07-30T04:56:50;15.50;99.90
53264;DHT22;39153;52.680;6.172;2023-07-30T04:59:16;15.50;99.90
53264;DHT22;39153;52.680;6.172;2023-07-30T05:01:42;15.60;99.90
53264;DHT22;39153;52.680;6.172;2023-07-30T05:04:07;15.70;99.90
53264;DHT22;39153;52.680;6.172;2023-07-30T05:06:33;15.70;99.90
53264;DHT22;39153;52.680;6.172;2023-07-30T05:08:59;15.70;99.90
53264;DHT22;39153;52.680;6.172;2023-07-30T05:11:24;15.80;99.90
53264;DHT22;39153;52.680;6.172;2023-07-30T05:13:50;15.70;99.90
53264;DHT22;39153;52.680;6.172;2023-07-30T05:16:16;15.80;99.90
53264;DHT22;39153;52.680;6.172;2023-07-30T05:18:42;15.90;99.90
53264;DHT22;39153;52.680;6.172;2023-07-30T05:21:07;15.80;99.90
53264;DHT22;39153;52.680;6.172;2023-07-30T05:23:33;15.80;99.90
53264;DHT22;39153;52.680;6.172;2023-07-30T05:25:59;16.00;99.90
53264;DHT22;39153;52.680;6.172;2023-07-30T05:28:25;15.90;99.90
53264;DHT22;39153;52.680;6.172;2023-07-30T05:30:51;15.90;99.90
53264;DHT22;39153;52.680;6.172;2023-07-30T05:33:16;16.00;99.90
53264;DHT22;39153;52.680;6.172;2023-07-30T05:35:42;16.00;99.90
53264;DHT22;39153;52.680;6.172;2023-07-30T05:38:08;16.10;99.90
53264;DHT22;39153;52.680;6.172;2023-07-30T05:40:35;16.00;99.90
53264;DHT22;39153;52.680;6.172;2023-07-30T05:43:01;16.10;99.90
53264;DHT22;39153;52.680;6.172;2023-07-30T05:45:27;16.20;99.90
53264;DHT22;39153;52.680;6.172;2023-07-30T05:47:52;16.10;99.90
53264;DHT22;39153;52.680;6.172;2023-07-30T05:50:18;16.20;99.90
53264;DHT22;39153;52.680;6.172;2023-07-30T05:52:44;16.30;99.90
53264;DHT22;39153;52.680;6.172;2023-07-30T05:55:10;16.30;99.90
53264;DHT22;39153;52.680;6.172;2023-07-30T05:57:36;16.40;99.90
53264;DHT22;39153;52.680;6.172;2023-07-30T06:00:01;16.30;99.90
53264;DHT22;39153;52.680;6.172;2023-07-30T06:02:27;16.40;99.90
53264;DHT22;39153;52.680;6.172;2023-07-30T06:04:53;16.40;99.90
53264;DHT22;39153;52.680;6.172;2023-07-30T06:07:19;16.40;99.90
53264;DHT22;39153;52.680;6.172;2023-07-30T06:09:45;16.50;99.90
53264;DHT22;39153;52.680;6.172;2023-07-30T06:12:11;16.50;99.90
53264;DHT22;39153;52.680;6.172;2023-07-30T06:14:36;16.60;99.90
53264;DHT22;39153;52.680;6.172;2023-07-30T06:17:02;16.70;99.90
53264;DHT22;39153;52.680;6.172;2023-07-30T06:19:28;16.60;99.90
53264;DHT22;39153;52.680;6.172;2023-07-30T06:21:54;16.70;99.90
53264;DHT22;39153;52.680;6.172;2023-07-30T06:24:20;16.70;99.90
53264;DHT22;39153;52.680;6.172;2023-07-30T06:26:46;16.80;99.90
53264;DHT22;39153;52.680;6.172;2023-07-30T06:29:12;16.90;99.90
53264;DHT22;39153;52.680;6.172;2023-07-30T06:31:37;16.90;99.90
53264;DHT22;39153;52.680;6.172;2023-07-30T06:34:03;17.00;99.90
53264;DHT22;39153;52.680;6.172;2023-07-30T06:36:29;17.00;99.90
53264;DHT22;39153;52.680;6.172;2023-07-30T06:38:55;17.00;99.90
53264;DHT22;39153;52.680;6.172;2023-07-30T06:41:21;17.00;99.90
53264;DHT22;39153;52.680;6.172;2023-07-30T06:43:47;17.10;99.90
53264;DHT22;39153;52.680;6.172;2023-07-30T06:46:13;17.10;99.90
53264;DHT22;39153;52.680;6.172;2023-07-30T06:48:38;17.10;99.90
53264;DHT22;39153;52.680;6.172;2023-07-30T06:51:09;17.20;99.90
53264;DHT22;39153;52.680;6.172;2023-07-30T06:53:35;17.40;99.90
53264;DHT22;39153;52.680;6.172;2023-07-30T06:56:00;17.40;99.90
53264;DHT22;39153;52.680;6.172;2023-07-30T06:58:26;17.40;99.90
53264;DHT22;39153;52.680;6.172;2023-07-30T07:00:52;17.50;99.90
53264;DHT22;39153;52.680;6.172;2023-07-30T07:03:18;17.40;99.90
53264;DHT22;39153;52.680;6.172;2023-07-30T07:05:43;17.50;99.90
53264;DHT22;39153;52.680;6.172;2023-07-30T07:08:09;17.40;99.90
53264;DHT22;39153;52.680;6.172;2023-07-30T07:10:35;17.50;99.90
53264;DHT22;39153;52.680;6.172;2023-07-30T07:13:04;17.50;99.90
53264;DHT22;39153;52.680;6.172;2023-07-30T07:15:29;17.50;99.90
53264;DHT22;39153;52.680;6.172;2023-07-30T07:17:55;17.50;99.90
53264;DHT22;39153;52.680;6.172;2023-07-30T07:20:21;17.70;99.90
53264;DHT22;39153;52.680;6.172;2023-07-30T07:22:46;17.70;99.90
53264;DHT22;39153;52.680;6.172;2023-07-30T07:25:15;17.70;99.90
53264;DHT22;39153;52.680;6.172;2023-07-30T07:27:44;17.70;99.90
53264;DHT22;39153;52.680;6.172;2023-07-30T07:30:10;17.70;99.90
53264;DHT22;39153;52.680;6.172;2023-07-30T07:32:36;17.60;99.90
53264;DHT22;39153;52.680;6.172;2023-07-30T07:35:04;17.60;99.90
53264;DHT22;39153;52.680;6.172;2023-07-30T07:37:32;17.60;99.90
53264;DHT22;39153;52.680;6.172;2023-07-30T07:39:57;17.60;99.90
53264;DHT22;39153;52.680;6.172;2023-07-30T07:42:23;17.80;99.90
53264;DHT22;39153;52.680;6.172;2023-07-30T07:44:49;17.80;99.90
53264;DHT22;39153;52.680;6.172;2023-07-30T07:47:15;18.00;99.90
53264;DHT22;39153;52.680;6.172;2023-07-30T07:49:41;18.10;99.90
53264;DHT22;39153;52.680;6.172;2023-07-30T07:52:07;18.20;99.90
53264;DHT22;39153;52.680;6.172;2023-07-30T07:54:33;18.30;99.90
53264;DHT22;39153;52.680;6.172;2023-07-30T07:56:59;18.30;99.90
53264;DHT22;39153;52.680;6.172;2023-07-30T07:59:25;18.40;99.90
53264;DHT22;39153;52.680;6.172;2023-07-30T08:01:51;18.40;99.90
53264;DHT22;39153;52.680;6.172;2023-07-30T08:04:17;18.60;99.90
53264;DHT22;39153;52.680;6.172;2023-07-30T08:06:43;18.70;99.90
53264;DHT22;39153;52.680;6.172;2023-07-30T08:09:08;18.70;99.90
53264;DHT22;39153;52.680;6.172;2023-07-30T08:11:35;19.00;99.90
53264;DHT22;39153;52.680;6.172;2023-07-30T08:14:01;19.10;99.90
53264;DHT22;39153;52.680;6.172;2023-07-30T08:16:26;19.10;99.90
53264;DHT22;39153;52.680;6.172;2023-07-30T08:18:52;19.20;99.90
53264;DHT22;39153;52.680;6.172;2023-07-30T08:21:17;19.10;99.90
53264;DHT22;39153;52.680;6.172;2023-07-30T08:23:46;19.20;99.90
53264;DHT22;39153;52.680;6.172;2023-07-30T08:26:12;19.10;99.90
53264;DHT22;39153;52.680;6.172;2023-07-30T08:28:37;19.20;99.90
53264;DHT22;39153;52.680;6.172;2023-07-30T08:31:05;19.10;99.90
53264;DHT22;39153;52.680;6.172;2023-07-30T08:33:31;19.10;99.90
53264;DHT22;39153;52.680;6.172;2023-07-30T08:35:58;19.00;99.90
53264;DHT22;39153;52.680;6.172;2023-07-30T08:38:24;19.00;99.90
53264;DHT22;39153;52.680;6.172;2023-07-30T08:40:50;19.00;99.90
53264;DHT22;39153;52.680;6.172;2023-07-30T08:43:20;19.10;99.90
53264;DHT22;39153;52.680;6.172;2023-07-30T08:45:45;19.30;99.90
53264;DHT22;39153;52.680;6.172;2023-07-30T08:48:11;19.40;99.90
53264;DHT22;39153;52.680;6.172;2023-07-30T08:50:37;19.50;99.90
53264;DHT22;39153;52.680;6.172;2023-07-30T08:53:03;19.50;99.90
53264;DHT22;39153;52.680;6.172;2023-07-30T08:55:32;19.50;99.90
53264;DHT22;39153;52.680;6.172;2023-07-30T08:58:01;19.40;99.90
53264;DHT22;39153;52.680;6.172;2023-07-30T09:00:32;19.40;99.90
53264;DHT22;39153;52.680;6.172;2023-07-30T09:03:00;19.30;99.90
53264;DHT22;39153;52.680;6.172;2023-07-30T09:05:26;19.30;99.90
53264;DHT22;39153;52.680;6.172;2023-07-30T09:07:56;19.30;99.90
53264;DHT22;39153;52.680;6.172;2023-07-30T09:10:22;19.30;99.90
53264;DHT22;39153;52.680;6.172;2023-07-30T09:12:55;19.40;99.90
53264;DHT22;39153;52.680;6.172;2023-07-30T09:15:32;19.40;99.90
53264;DHT22;39153;52.680;6.172;2023-07-30T09:17:59;19.40;99.90
53264;DHT22;39153;52.680;6.172;2023-07-30T09:20:26;19.30;99.90
53264;DHT22;39153;52.680;6.172;2023-07-30T09:22:52;19.20;99.90
53264;DHT22;39153;52.680;6.172;2023-07-30T09:25:20;19.10;99.90
53264;DHT22;39153;52.680;6.172;2023-07-30T09:27:52;19.00;99.90
53264;DHT22;39153;52.680;6.172;2023-07-30T09:30:23;19.00;99.90
53264;DHT22;39153;52.680;6.172;2023-07-30T09:32:55;18.90;99.90
53264;DHT22;39153;52.680;6.172;2023-07-30T09:35:21;18.80;99.90
53264;DHT22;39153;52.680;6.172;2023-07-30T09:37:48;18.70;99.90
53264;DHT22;39153;52.680;6.172;2023-07-30T09:40:15;18.50;99.90
53264;DHT22;39153;52.680;6.172;2023-07-30T09:42:48;18.20;99.90
53264;DHT22;39153;52.680;6.172;2023-07-30T09:45:21;17.80;99.90
53264;DHT22;39153;52.680;6.172;2023-07-30T09:47:48;17.40;99.90
53264;DHT22;39153;52.680;6.172;2023-07-30T09:50:14;17.20;99.90
53264;DHT22;39153;52.680;6.172;2023-07-30T09:52:42;17.20;99.90
53264;DHT22;39153;52.680;6.172;2023-07-30T09:55:08;17.20;99.90
53264;DHT22;39153;52.680;6.172;2023-07-30T09:57:34;17.10;99.90
53264;DHT22;39153;52.680;6.172;2023-07-30T10:00:02;17.20;99.90
53264;DHT22;39153;52.680;6.172;2023-07-30T10:02:29;17.30;99.90
53264;DHT22;39153;52.680;6.172;2023-07-30T10:04:59;17.30;99.90
53264;DHT22;39153;52.680;6.172;2023-07-30T10:07:28;17.30;99.90
53264;DHT22;39153;52.680;6.172;2023-07-30T10:09:58;17.30;99.90
53264;DHT22;39153;52.680;6.172;2023-07-30T10:12:29;17.40;99.90
53264;DHT22;39153;52.680;6.172;2023-07-30T10:14:57;17.60;99.90
53264;DHT22;39153;52.680;6.172;2023-07-30T10:17:22;17.80;99.90
53264;DHT22;39153;52.680;6.172;2023-07-30T10:19:49;18.00;99.90
53264;DHT22;39153;52.680;6.172;2023-07-30T10:24:59;18.60;99.90
53264;DHT22;39153;52.680;6.172;2023-07-30T10:27:27;18.80;99.90
53264;DHT22;39153;52.680;6.172;2023-07-30T10:30:10;19.00;99.90
53264;DHT22;39153;52.680;6.172;2023-07-30T10:35:43;19.50;99.90
53264;DHT22;39153;52.680;6.172;2023-07-30T10:38:16;19.60;99.90
53264;DHT22;39153;52.680;6.172;2023-07-30T10:40:42;19.80;99.90
53264;DHT22;39153;52.680;6.172;2023-07-30T10:43:28;19.90;99.90
53264;DHT22;39153;52.680;6.172;2023-07-30T10:45:53;20.10;99.90
53264;DHT22;39153;52.680;6.172;2023-07-30T10:48:29;20.20;99.90
53264;DHT22;39153;52.680;6.172;2023-07-30T10:50:56;20.30;99.90
53264;DHT22;39153;52.680;6.172;2023-07-30T10:53:21;20.40;99.90
53264;DHT22;39153;52.680;6.172;2023-07-30T10:55:48;20.50;99.90
53264;DHT22;39153;52.680;6.172;2023-07-30T10:58:14;20.70;99.90
53264;DHT22;39153;52.680;6.172;2023-07-30T11:00:42;20.80;99.90
53264;DHT22;39153;52.680;6.172;2023-07-30T11:03:07;21.00;99.90
53264;DHT22;39153;52.680;6.172;2023-07-30T11:05:33;21.20;99.90
53264;DHT22;39153;52.680;6.172;2023-07-30T11:07:58;21.20;99.90
53264;DHT22;39153;52.680;6.172;2023-07-30T11:10:24;21.10;99.90
53264;DHT22;39153;52.680;6.172;2023-07-30T11:12:51;21.20;99.90
53264;DHT22;39153;52.680;6.172;2023-07-30T11:15:16;21.10;99.90
53264;DHT22;39153;52.680;6.172;2023-07-30T11:17:42;21.10;99.90
53264;DHT22;39153;52.680;6.172;2023-07-30T11:20:24;21.00;99.90
53264;DHT22;39153;52.680;6.172;2023-07-30T11:22:53;21.00;99.90
53264;DHT22;39153;52.680;6.172;2023-07-30T11:25:19;21.10;99.90
53264;DHT22;39153;52.680;6.172;2023-07-30T11:27:48;21.30;99.90
53264;DHT22;39153;52.680;6.172;2023-07-30T11:30:14;21.30;99.90
53264;DHT22;39153;52.680;6.172;2023-07-30T11:32:42;21.50;99.90
53264;DHT22;39153;52.680;6.172;2023-07-30T11:35:14;21.80;99.90
53264;DHT22;39153;52.680;6.172;2023-07-30T11:37:42;22.20;99.90
53264;DHT22;39153;52.680;6.172;2023-07-30T11:40:09;22.30;99.90
53264;DHT22;39153;52.680;6.172;2023-07-30T11:42:36;22.30;99.90
53264;DHT22;39153;52.680;6.172;2023-07-30T11:45:23;22.10;99.90
53264;DHT22;39153;52.680;6.172;2023-07-30T11:47:49;21.90;99.90
53264;DHT22;39153;52.680;6.172;2023-07-30T11:50:16;21.90;99.90
53264;DHT22;39153;52.680;6.172;2023-07-30T11:52:52;22.00;99.90
53264;DHT22;39153;52.680;6.172;2023-07-30T11:55:18;21.90;99.90
53264;DHT22;39153;52.680;6.172;2023-07-30T11:57:45;21.60;99.90
53264;DHT22;39153;52.680;6.172;2023-07-30T12:00:11;21.40;99.90
53264;DHT22;39153;52.680;6.172;2023-07-30T12:02:38;21.30;99.90
53264;DHT22;39153;52.680;6.172;2023-07-30T12:05:04;21.10;99.90
53264;DHT22;39153;52.680;6.172;2023-07-30T12:07:32;21.10;99.90
53264;DHT22;39153;52.680;6.172;2023-07-30T12:10:11;21.10;99.90
53264;DHT22;39153;52.680;6.172;2023-07-30T12:12:44;21.30;99.90
53264;DHT22;39153;52.680;6.172;2023-07-30T12:15:11;21.40;99.90
53264;DHT22;39153;52.680;6.172;2023-07-30T12:17:38;21.50;99.90
53264;DHT22;39153;52.680;6.172;2023-07-30T12:20:05;21.50;99.90
53264;DHT22;39153;52.680;6.172;2023-07-30T12:22:35;21.50;99.90
53264;DHT22;39153;52.680;6.172;2023-07-30T12:25:02;21.70;99.90
53264;DHT22;39153;52.680;6.172;2023-07-30T12:27:29;21.80;99.90
53264;DHT22;39153;52.680;6.172;2023-07-30T12:29:55;21.70;99.90
53264;DHT22;39153;52.680;6.172;2023-07-30T12:32:20;21.50;99.90
53264;DHT22;39153;52.680;6.172;2023-07-30T12:34:46;21.30;99.90
53264;DHT22;39153;52.680;6.172;2023-07-30T12:37:12;21.00;99.90
53264;DHT22;39153;52.680;6.172;2023-07-30T12:39:37;20.70;99.90
53264;DHT22;39153;52.680;6.172;2023-07-30T12:42:03;20.30;99.90
53264;DHT22;39153;52.680;6.172;2023-07-30T12:44:29;20.00;99.90
53264;DHT22;39153;52.680;6.172;2023-07-30T12:46:55;19.80;99.90
53264;DHT22;39153;52.680;6.172;2023-07-30T12:49:20;19.70;99.90
53264;DHT22;39153;52.680;6.172;2023-07-30T12:51:46;19.60;99.90
53264;DHT22;39153;52.680;6.172;2023-07-30T12:54:12;19.50;99.90
53264;DHT22;39153;52.680;6.172;2023-07-30T12:56:39;19.70;99.90
53264;DHT22;39153;52.680;6.172;2023-07-30T12:59:04;20.00;99.90
53264;DHT22;39153;52.680;6.172;2023-07-30T13:01:30;20.30;99.90
53264;DHT22;39153;52.680;6.172;2023-07-30T13:03:56;20.80;99.90
53264;DHT22;39153;52.680;6.172;2023-07-30T13:06:21;21.00;99.90
53264;DHT22;39153;52.680;6.172;2023-07-30T13:08:47;21.00;99.90
53264;DHT22;39153;52.680;6.172;2023-07-30T13:11:13;21.10;99.90
53264;DHT22;39153;52.680;6.172;2023-07-30T13:13:39;21.30;99.90
53264;DHT22;39153;52.680;6.172;2023-07-30T13:16:05;21.60;99.90
53264;DHT22;39153;52.680;6.172;2023-07-30T13:18:31;21.80;99.90
53264;DHT22;39153;52.680;6.172;2023-07-30T13:20:56;21.70;99.90
53264;DHT22;39153;52.680;6.172;2023-07-30T13:23:22;21.40;99.90
53264;DHT22;39153;52.680;6.172;2023-07-30T13:25:50;21.30;99.90
53264;DHT22;39153;52.680;6.172;2023-07-30T13:28:16;21.30;99.90
53264;DHT22;39153;52.680;6.172;2023-07-30T13:30:42;21.40;99.90
53264;DHT22;39153;52.680;6.172;2023-07-30T13:33:07;21.40;99.90
53264;DHT22;39153;52.680;6.172;2023-07-30T13:35:33;21.50;99.90
53264;DHT22;39153;52.680;6.172;2023-07-30T13:37:59;21.80;99.90
53264;DHT22;39153;52.680;6.172;2023-07-30T13:40:25;22.10;99.90
53264;DHT22;39153;52.680;6.172;2023-07-30T13:42:50;22.20;99.90
53264;DHT22;39153;52.680;6.172;2023-07-30T13:45:16;22.50;99.90
53264;DHT22;39153;52.680;6.172;2023-07-30T13:47:42;22.90;99.90
53264;DHT22;39153;52.680;6.172;2023-07-30T13:50:08;23.00;99.90
53264;DHT22;39153;52.680;6.172;2023-07-30T13:52:34;22.80;99.90
53264;DHT22;39153;52.680;6.172;2023-07-30T13:54:59;22.50;99.90
53264;DHT22;39153;52.680;6.172;2023-07-30T13:57:25;22.10;99.90
53264;DHT22;39153;52.680;6.172;2023-07-30T13:59:52;21.80;99.90
53264;DHT22;39153;52.680;6.172;2023-07-30T14:02:18;21.60;99.90
53264;DHT22;39153;52.680;6.172;2023-07-30T14:04:44;21.60;99.90
53264;DHT22;39153;52.680;6.172;2023-07-30T14:07:09;21.80;99.90
53264;DHT22;39153;52.680;6.172;2023-07-30T14:09:35;22.10;99.90
53264;DHT22;39153;52.680;6.172;2023-07-30T14:12:05;22.40;99.90
53264;DHT22;39153;52.680;6.172;2023-07-30T14:14:31;22.80;99.90
53264;DHT22;39153;52.680;6.172;2023-07-30T14:16:57;22.90;99.90
53264;DHT22;39153;52.680;6.172;2023-07-30T14:19:23;22.70;99.90
53264;DHT22;39153;52.680;6.172;2023-07-30T14:21:48;22.50;99.90
53264;DHT22;39153;52.680;6.172;2023-07-30T14:24:14;22.40;99.90
53264;DHT22;39153;52.680;6.172;2023-07-30T14:26:40;22.50;99.90
53264;DHT22;39153;52.680;6.172;2023-07-30T14:29:06;22.80;99.90
53264;DHT22;39153;52.680;6.172;2023-07-30T14:31:32;23.20;99.90
53264;DHT22;39153;52.680;6.172;2023-07-30T14:33:58;23.40;99.90
53264;DHT22;39153;52.680;6.172;2023-07-30T14:36:24;23.30;99.90
53264;DHT22;39153;52.680;6.172;2023-07-30T14:38:49;23.20;99.90
53264;DHT22;39153;52.680;6.172;2023-07-30T14:41:15;22.90;99.90
53264;DHT22;39153;52.680;6.172;2023-07-30T14:43:41;22.70;99.90
53264;DHT22;39153;52.680;6.172;2023-07-30T14:46:06;22.50;99.90
53264;DHT22;39153;52.680;6.172;2023-07-30T14:48:41;22.20;99.90
53264;DHT22;39153;52.680;6.172;2023-07-30T14:51:08;22.00;99.90
53264;DHT22;39153;52.680;6.172;2023-07-30T14:53:34;21.90;99.90
53264;DHT22;39153;52.680;6.172;2023-07-30T14:56:00;21.80;99.90
53264;DHT22;39153;52.680;6.172;2023-07-30T14:58:26;21.90;99.90
53264;DHT22;39153;52.680;6.172;2023-07-30T15:00:51;22.10;99.90
53264;DHT22;39153;52.680;6.172;2023-07-30T15:03:17;22.40;99.90
53264;DHT22;39153;52.680;6.172;2023-07-30T15:05:43;22.80;99.90
53264;DHT22;39153;52.680;6.172;2023-07-30T15:08:09;22.90;99.90
53264;DHT22;39153;52.680;6.172;2023-07-30T15:10:34;22.90;99.90
53264;DHT22;39153;52.680;6.172;2023-07-30T15:13:00;23.00;99.90
53264;DHT22;39153;52.680;6.172;2023-07-30T15:15:26;23.30;99.90
53264;DHT22;39153;52.680;6.172;2023-07-30T15:17:51;23.40;99.90
53264;DHT22;39153;52.680;6.172;2023-07-30T15:20:17;23.40;99.90
53264;DHT22;39153;52.680;6.172;2023-07-30T15:22:43;23.20;99.90
53264;DHT22;39153;52.680;6.172;2023-07-30T15:25:09;22.90;99.90
53264;DHT22;39153;52.680;6.172;2023-07-30T15:27:34;22.60;99.90
53264;DHT22;39153;52.680;6.172;2023-07-30T15:30:00;22.50;99.90
53264;DHT22;39153;52.680;6.172;2023-07-30T15:32:28;22.60;99.90